Time;durP1;ratioP1;P1;durP2;ratioP2;P2;SDS_P1;SDS_P2;PMS_P1;PMS_P2;Temp;Humidity;BMP_temperature;BMP_pressure;BME280_temperature;BME280_humidity;BME280_pressure;Samples;Min_cycle;Max_cycle;Signal;HPM_P1;HPM_P2
2022/10/24 00:01:17;;;;;;;11.65;8.55;;;;;;;10.80;100.00;100571.06;1645697;85;21089;-68
2022/10/24 00:03:46;;;;;;;11.50;8.88;;;;;;;10.77;100.00;100563.50;1644101;85;21062;-69
2022/10/24 00:06:16;;;;;;;11.35;8.73;;;;;;;10.75;100.00;100561.90;1645001;85;21101;-69
2022/10/24 00:08:45;;;;;;;12.35;8.60;;;;;;;10.79;100.00;100566.01;1666836;85;21542;-69
2022/10/24 00:11:24;;;;;;;13.90;9.35;;;;;;;10.79;100.00;100581.00;1668069;85;21082;-69
2022/10/24 00:13:56;;;;;;;12.63;9.13;;;;;;;10.76;100.00;100568.25;1662707;85;21058;-69
2022/10/24 00:16:25;;;;;;;15.83;9.70;;;;;;;10.81;100.00;100568.89;1666565;85;21035;-69
2022/10/24 00:18:53;;;;;;;15.32;9.43;;;;;;;10.89;100.00;100577.58;1648821;85;21065;-69
2022/10/24 00:21:20;;;;;;;13.85;9.73;;;;;;;10.78;100.00;100583.17;1669378;85;21050;-69
2022/10/24 00:23:48;;;;;;;14.05;10.43;;;;;;;10.83;100.00;100575.27;1666138;85;21145;-69
2022/10/24 00:26:16;;;;;;;15.43;10.85;;;;;;;10.74;100.00;100581.64;1665784;85;21061;-70
2022/10/24 00:28:44;;;;;;;14.58;10.70;;;;;;;10.65;100.00;100583.34;1643853;85;21102;-69
2022/10/24 00:31:15;;;;;;;15.50;10.82;;;;;;;10.68;100.00;100584.48;1647592;85;21581;-69
2022/10/24 00:33:43;;;;;;;15.00;11.35;;;;;;;10.62;100.00;100572.73;1668360;85;21030;-69
2022/10/24 00:36:15;;;;;;;14.45;11.12;;;;;;;10.66;100.00;100577.73;1660956;85;21117;-69
2022/10/24 00:38:42;;;;;;;14.63;10.43;;;;;;;10.69;100.00;100575.87;1627457;86;21106;-69
2022/10/24 00:41:17;;;;;;;14.68;10.50;;;;;;;10.70;100.00;100592.14;1620130;87;21094;-69
2022/10/24 00:43:46;;;;;;;13.08;10.78;;;;;;;10.66;100.00;100595.75;1651787;85;21105;-69
2022/10/24 00:46:16;;;;;;;14.30;10.90;;;;;;;10.63;100.00;100597.56;1621600;87;21583;-69
2022/10/24 00:48:52;;;;;;;13.48;10.53;;;;;;;10.63;100.00;100605.73;1646304;86;21548;-69
2022/10/24 00:51:27;;;;;;;13.90;10.65;;;;;;;10.59;100.00;100603.73;1647218;87;21141;-69
2022/10/24 00:53:59;;;;;;;14.35;10.72;;;;;;;10.59;100.00;100600.34;1689096;83;21078;-70
2022/10/24 00:56:30;;;;;;;15.30;10.45;;;;;;;10.60;100.00;100595.56;1685156;83;21051;-70
2022/10/24 00:59:02;;;;;;;13.60;10.38;;;;;;;10.59;100.00;100606.31;1710273;83;21084;-69
2022/10/24 01:01:29;;;;;;;14.65;10.65;;;;;;;10.63;100.00;100596.27;1698738;84;21014;-70
2022/10/24 01:03:58;;;;;;;16.42;10.95;;;;;;;10.60;100.00;100604.14;1712022;84;21093;-70
2022/10/24 01:06:40;;;;;;;15.35;10.82;;;;;;;10.58;100.00;100595.65;1710946;83;21018;-69
2022/10/24 01:09:49;;;;;;;15.35;11.30;;;;;;;10.56;100.00;100598.73;1691353;84;21021;-70
2022/10/24 01:12:33;;;;;;;15.88;11.85;;;;;;;10.55;100.00;100604.77;1687143;83;21099;-70
2022/10/24 01:15:09;;;;;;;16.87;11.38;;;;;;;10.46;100.00;100607.72;1695408;83;21057;-70
2022/10/24 01:18:01;;;;;;;16.65;11.90;;;;;;;10.49;100.00;100602.92;1697473;83;21054;-70
2022/10/24 01:20:45;;;;;;;17.52;12.40;;;;;;;10.47;100.00;100606.00;1691671;83;21376;-70
2022/10/24 01:23:30;;;;;;;;;;;;;;;10.53;100.00;100614.30;1696594;83;21097;-70
2022/10/24 01:26:25;;;;;;;;;;;;;;;10.51;100.00;100625.11;1694968;83;20549;-69
2022/10/24 01:29:26;;;;;;;18.95;13.35;;;;;;;10.49;100.00;100640.23;1690871;83;20163;-69
2022/10/24 01:32:02;;;;;;;19.05;13.13;;;;;;;10.56;100.00;100637.78;1695152;84;21618;-70
2022/10/24 01:34:43;;;;;;;17.20;12.47;;;;;;;10.56;100.00;100646.36;1685102;83;21070;-70
2022/10/24 01:37:21;;;;;;;23.77;15.32;;;;;;;10.54;100.00;100659.74;1704056;83;21069;-69
2022/10/24 01:39:52;;;;;;;23.25;14.68;;;;;;;10.51;100.00;100651.30;1699621;83;21030;-70
2022/10/24 01:42:23;;;;;;;21.02;14.00;;;;;;;10.51;100.00;100658.56;1691104;83;21087;-68
2022/10/24 01:44:54;;;;;;;23.05;14.07;;;;;;;10.50;100.00;100658.63;1697417;83;21544;-68
2022/10/24 01:47:29;;;;;;;21.45;14.95;;;;;;;10.56;100.00;100655.37;1689252;83;21493;-69
2022/10/24 01:50:02;;;;;;;24.27;15.05;;;;;;;10.48;100.00;100659.97;1689234;84;21018;-67
2022/10/24 01:52:35;;;;;;;21.73;15.32;;;;;;;10.48;100.00;100657.85;1689949;83;21472;-68
2022/10/24 01:55:05;;;;;;;20.92;14.45;;;;;;;10.53;100.00;100662.38;1695781;83;21539;-68
2022/10/24 01:57:34;;;;;;;23.10;15.55;;;;;;;10.50;100.00;100658.20;1709385;83;21085;-68
2022/10/24 02:00:03;;;;;;;24.75;15.93;;;;;;;10.46;100.00;100653.22;1703131;83;21043;-69
2022/10/24 02:02:44;;;;;;;24.18;15.88;;;;;;;10.39;100.00;100644.92;1692494;84;21563;-68
2022/10/24 02:05:35;;;;;;;28.62;15.45;;;;;;;10.31;100.00;100638.80;1698811;83;21531;-71
2022/10/24 02:08:07;;;;;;;24.52;15.58;;;;;;;10.34;100.00;100623.25;1677061;84;21036;-71
2022/10/24 02:10:52;;;;;;;22.60;15.32;;;;;;;10.28;100.00;100614.89;1680482;84;21104;-68
2022/10/24 02:13:44;;;;;;;24.27;15.60;;;;;;;10.28;100.00;100613.17;1705166;83;21066;-69
2022/10/24 02:16:19;;;;;;;23.12;15.25;;;;;;;10.18;100.00;100604.99;1677913;83;21055;-68
2022/10/24 02:18:51;;;;;;;22.77;15.55;;;;;;;10.28;100.00;100602.03;1706774;84;21037;-68
2022/10/24 02:21:45;;;;;;;23.00;15.23;;;;;;;10.27;100.00;100593.48;1707038;84;21022;-68
2022/10/24 02:24:27;;;;;;;22.82;15.18;;;;;;;10.30;100.00;100596.40;1678977;83;21044;-68
2022/10/24 02:27:14;;;;;;;25.65;15.25;;;;;;;10.39;100.00;100593.45;1694488;83;21654;-68
2022/10/24 02:30:13;;;;;;;23.25;15.15;;;;;;;10.44;100.00;100592.80;1692531;83;21069;-68
2022/10/24 02:32:45;;;;;;;25.80;15.53;;;;;;;10.49;100.00;100595.20;1706114;83;21560;-68
2022/10/24 02:35:15;;;;;;;25.82;15.53;;;;;;;10.56;100.00;100596.59;1692638;84;21061;-68
2022/10/24 02:37:50;;;;;;;27.82;16.45;;;;;;;10.48;100.00;100590.48;1707482;83;21059;-68
2022/10/24 02:40:19;;;;;;;26.25;14.60;;;;;;;10.54;100.00;100587.67;1679756;84;21093;-68
2022/10/24 02:42:51;;;;;;;26.48;15.23;;;;;;;10.53;100.00;100592.42;1691054;83;21136;-68
2022/10/24 02:45:21;;;;;;;27.73;15.35;;;;;;;10.59;100.00;100593.44;1712344;83;21533;-69
2022/10/24 02:47:51;;;;;;;25.48;15.00;;;;;;;10.65;100.00;100593.64;1698536;83;21078;-68
2022/10/24 02:50:19;;;;;;;25.70;15.30;;;;;;;10.67;100.00;100598.73;1686328;83;21063;-68
2022/10/24 02:52:47;;;;;;;23.45;15.03;;;;;;;10.68;100.00;100594.78;1697905;83;21093;-67
2022/10/24 02:55:14;;;;;;;23.20;15.58;;;;;;;10.75;100.00;100597.95;1703231;83;21535;-68
2022/10/24 02:57:40;;;;;;;24.82;15.35;;;;;;;10.83;100.00;100597.98;1692300;84;21087;-67
2022/10/24 03:00:09;;;;;;;23.57;15.00;;;;;;;10.80;100.00;100598.11;1686503;83;21079;-68
2022/10/24 03:02:37;;;;;;;25.05;14.98;;;;;;;10.81;100.00;100604.11;1686081;84;21084;-68
2022/10/24 03:05:06;;;;;;;26.07;15.43;;;;;;;10.82;100.00;100598.05;1701621;83;21144;-69
2022/10/24 03:07:34;;;;;;;24.82;14.38;;;;;;;10.81;100.00;100592.06;1701375;83;21565;-67
2022/10/24 03:10:01;;;;;;;26.95;15.18;;;;;;;10.83;100.00;100597.98;1679957;83;21041;-68
2022/10/24 03:12:30;;;;;;;26.27;14.30;;;;;;;10.85;100.00;100600.50;1712049;83;21565;-68
2022/10/24 03:14:58;;;;;;;26.68;14.93;;;;;;;10.90;100.00;100599.83;1690756;83;21587;-67
2022/10/24 03:17:25;;;;;;;24.40;15.80;;;;;;;10.93;100.00;100592.41;1671726;85;21095;-68
2022/10/24 03:19:54;;;;;;;25.50;15.23;;;;;;;10.98;100.00;100592.60;1701138;84;22256;-68
2022/10/24 03:22:21;;;;;;;28.73;15.35;;;;;;;11.05;100.00;100594.91;1675938;84;21060;-68
2022/10/24 03:24:49;;;;;;;25.12;14.75;;;;;;;11.07;100.00;100597.82;1694839;84;21021;-68
2022/10/24 03:27:16;;;;;;;22.02;13.65;;;;;;;11.07;100.00;100607.27;1680594;83;21628;-67
2022/10/24 03:29:43;;;;;;;21.97;14.18;;;;;;;11.13;100.00;100609.14;1687631;83;21098;-67
2022/10/24 03:32:10;;;;;;;22.58;13.60;;;;;;;11.18;100.00;100614.08;1672104;83;21087;-67
2022/10/24 03:34:38;;;;;;;19.95;13.00;;;;;;;11.19;100.00;100616.59;1709967;83;21042;-67
2022/10/24 03:37:05;;;;;;;18.00;12.65;;;;;;;11.25;100.00;100624.47;1693509;83;21502;-68
2022/10/24 03:39:31;;;;;;;20.17;12.03;;;;;;;11.25;100.00;100633.49;1684632;84;21328;-67
2022/10/24 03:41:58;;;;;;;18.37;12.03;;;;;;;11.34;100.00;100640.83;1682678;83;21128;-67
2022/10/24 03:44:26;;;;;;;21.40;12.70;;;;;;;11.32;100.00;100647.79;1685173;83;21548;-68
2022/10/24 03:46:54;;;;;;;15.05;10.98;;;;;;;11.35;100.00;100657.12;1676942;83;21580;-68
2022/10/24 03:49:21;;;;;;;15.45;10.82;;;;;;;11.38;100.00;100660.40;1680486;84;21065;-67
2022/10/24 03:51:48;;;;;;;15.58;10.25;;;;;;;11.39;100.00;100663.80;1701082;83;21058;-67
2022/10/24 03:54:15;;;;;;;17.10;10.40;;;;;;;11.35;100.00;100664.39;1680106;84;21623;-68
2022/10/24 03:56:43;;;;;;;14.53;10.50;;;;;;;11.36;100.00;100663.50;1698831;83;21028;-67
2022/10/24 03:59:11;;;;;;;15.30;9.68;;;;;;;11.37;100.00;100676.75;1711578;83;21072;-67
2022/10/24 04:01:39;;;;;;;14.93;9.65;;;;;;;11.36;100.00;100682.83;1698809;83;21101;-69
2022/10/24 04:04:06;;;;;;;12.05;8.45;;;;;;;11.43;100.00;100685.95;1670920;84;21139;-67
2022/10/24 04:06:33;;;;;;;15.18;9.38;;;;;;;11.36;100.00;100697.47;1700982;83;21547;-68
2022/10/24 04:09:00;;;;;;;15.53;8.48;;;;;;;11.44;100.00;100710.84;1695332;83;21101;-68
2022/10/24 04:11:29;;;;;;;14.63;8.85;;;;;;;11.49;100.00;100709.34;1699093;83;21045;-67
2022/10/24 04:13:57;;;;;;;11.75;8.23;;;;;;;11.57;100.00;100722.27;1701766;83;21094;-68
2022/10/24 04:16:27;;;;;;;12.30;7.80;;;;;;;11.50;100.00;100730.38;1694506;84;21066;-68
2022/10/24 04:18:55;;;;;;;12.10;8.03;;;;;;;11.57;100.00;100735.16;1683596;83;21065;-67
2022/10/24 04:21:22;;;;;;;11.85;7.90;;;;;;;11.54;100.00;100739.64;1684859;83;21102;-68
2022/10/24 04:23:49;;;;;;;10.82;7.60;;;;;;;11.59;100.00;100735.92;1691410;84;21049;-68
2022/10/24 04:26:17;;;;;;;11.03;7.60;;;;;;;11.56;100.00;100738.66;1679451;83;21036;-68
2022/10/24 04:28:45;;;;;;;11.78;7.97;;;;;;;11.51;100.00;100747.03;1673399;83;21103;-68
2022/10/24 04:31:13;;;;;;;11.65;7.67;;;;;;;11.49;100.00;100738.53;1681958;83;21115;-68
2022/10/24 04:33:40;;;;;;;13.13;7.97;;;;;;;11.49;100.00;100749.30;1708966;83;21085;-68
2022/10/24 04:36:08;;;;;;;11.18;7.60;;;;;;;11.46;100.00;100748.99;1712195;83;21478;-68
2022/10/24 04:38:36;;;;;;;12.10;7.78;;;;;;;11.43;100.00;100759.42;1694864;83;21100;-69
2022/10/24 04:41:03;;;;;;;10.75;7.58;;;;;;;11.52;100.00;100760.78;1713345;83;21148;-68
2022/10/24 04:43:30;;;;;;;12.25;7.62;;;;;;;11.43;100.00;100768.02;1681619;84;21245;-69
2022/10/24 04:45:58;;;;;;;12.65;8.28;;;;;;;11.39;100.00;100764.33;1690228;84;21044;-68
2022/10/24 04:48:28;;;;;;;14.75;8.23;;;;;;;11.35;100.00;100767.48;1698417;83;21175;-68
2022/10/24 04:50:55;;;;;;;11.03;7.62;;;;;;;11.37;100.00;100760.52;1693975;82;21055;-68
2022/10/24 04:53:21;;;;;;;10.25;7.70;;;;;;;11.55;100.00;100768.37;1689908;84;21068;-68
2022/10/24 04:55:48;;;;;;;12.10;7.83;;;;;;;11.61;100.00;100783.56;1676675;84;21076;-70
2022/10/24 04:58:16;;;;;;;9.68;7.10;;;;;;;11.61;100.00;100781.81;1687334;82;21083;-70
2022/10/24 05:00:47;;;;;;;10.98;7.62;;;;;;;11.66;100.00;100789.80;1708098;83;21059;-71
2022/10/24 05:03:12;;;;;;;12.03;7.65;;;;;;;11.74;100.00;100792.45;1689793;84;21118;-71
2022/10/24 05:05:39;;;;;;;10.40;7.22;;;;;;;11.71;100.00;100803.34;1704439;83;21143;-70
2022/10/24 05:08:07;;;;;;;10.48;7.47;;;;;;;11.71;100.00;100802.88;1698257;82;21032;-69
2022/10/24 05:10:36;;;;;;;10.23;7.37;;;;;;;11.71;100.00;100813.20;1705037;82;21087;-68
2022/10/24 05:13:04;;;;;;;9.25;6.83;;;;;;;11.63;100.00;100812.70;1698364;82;21051;-68
2022/10/24 05:15:33;;;;;;;9.60;6.67;;;;;;;11.56;100.00;100806.16;1695717;82;21064;-68
2022/10/24 05:18:00;;;;;;;11.08;6.75;;;;;;;11.54;100.00;100815.23;1684198;83;21566;-68
2022/10/24 05:20:28;;;;;;;10.28;6.75;;;;;;;11.48;100.00;100814.21;1695600;83;21139;-71
2022/10/24 05:22:55;;;;;;;10.32;6.55;;;;;;;11.45;100.00;100822.52;1680223;82;21108;-70
2022/10/24 05:25:23;;;;;;;7.80;6.42;;;;;;;11.46;100.00;100819.89;1701380;83;21519;-70
2022/10/24 05:27:50;;;;;;;8.38;6.80;;;;;;;11.50;100.00;100819.31;1694655;82;21049;-71
2022/10/24 05:30:17;;;;;;;10.15;6.72;;;;;;;11.49;100.00;100825.35;1691452;83;21538;-71
2022/10/24 05:32:44;;;;;;;8.60;6.78;;;;;;;11.49;100.00;100826.64;1699489;84;21520;-70
2022/10/24 05:35:12;;;;;;;10.82;7.05;;;;;;;11.55;100.00;100828.50;1695954;84;21060;-69
2022/10/24 05:37:39;;;;;;;9.98;7.58;;;;;;;11.59;100.00;100837.77;1683450;83;21021;-70
2022/10/24 05:40:09;;;;;;;8.28;6.20;;;;;;;11.69;100.00;100843.84;1691819;82;21544;-68
2022/10/24 05:42:38;;;;;;;9.55;5.92;;;;;;;11.71;100.00;100851.88;1684014;84;21052;-68
2022/10/24 05:45:07;;;;;;;9.48;6.83;;;;;;;11.90;100.00;100856.27;1695834;84;21060;-67
2022/10/24 05:47:34;;;;;;;10.05;7.47;;;;;;;12.04;100.00;100865.52;1709973;82;21087;-68
2022/10/24 05:50:01;;;;;;;14.28;9.30;;;;;;;12.22;100.00;100864.70;1696963;82;21088;-67
2022/10/24 05:52:29;;;;;;;19.80;10.85;;;;;;;12.35;100.00;100875.33;1697249;82;21045;-68
2022/10/24 05:54:56;;;;;;;18.92;11.38;;;;;;;12.49;100.00;100879.86;1701155;83;21530;-68
2022/10/24 05:57:24;;;;;;;19.37;12.23;;;;;;;12.62;100.00;100883.53;1697387;83;21071;-68
2022/10/24 05:59:51;;;;;;;23.95;14.80;;;;;;;12.70;100.00;100897.84;1704990;83;21570;-67
2022/10/24 06:02:19;;;;;;;22.00;15.43;;;;;;;12.69;100.00;100896.16;1688324;83;21532;-68
2022/10/24 06:04:47;;;;;;;26.48;15.60;;;;;;;12.63;100.00;100896.84;1695057;84;21138;-67
2022/10/24 06:07:14;;;;;;;19.62;14.33;;;;;;;12.57;100.00;100900.14;1682320;84;21087;-67
2022/10/24 06:09:41;;;;;;;20.52;14.20;;;;;;;12.47;100.00;100897.17;1684300;83;21084;-68
2022/10/24 06:12:10;;;;;;;23.30;14.87;;;;;;;12.50;100.00;100889.73;1685591;82;21543;-68
2022/10/24 06:14:38;;;;;;;21.40;13.48;;;;;;;12.60;100.00;100900.84;1696846;83;21095;-67
2022/10/24 06:17:10;;;;;;;19.07;13.45;;;;;;;12.89;100.00;100899.92;1704592;83;21480;-68
2022/10/24 06:19:40;;;;;;;18.70;13.40;;;;;;;13.12;100.00;100901.86;1697832;82;21062;-68
2022/10/24 06:22:08;;;;;;;26.25;15.70;;;;;;;13.28;100.00;100913.16;1704685;83;21079;-70
2022/10/24 06:24:37;;;;;;;21.37;14.95;;;;;;;13.30;100.00;100914.38;1700126;84;21059;-69
2022/10/24 06:27:06;;;;;;;21.45;14.73;;;;;;;13.33;100.00;100923.30;1711346;84;21048;-70
2022/10/24 06:29:34;;;;;;;22.02;15.25;;;;;;;13.21;100.00;100920.82;1698894;84;21108;-70
2022/10/24 06:32:01;;;;;;;19.30;13.10;;;;;;;13.20;100.00;100921.75;1683291;85;21071;-70
2022/10/24 06:34:28;;;;;;;15.18;11.55;;;;;;;13.21;100.00;100928.57;1666237;85;21042;-70
2022/10/24 06:36:55;;;;;;;21.48;14.55;;;;;;;13.30;100.00;100921.71;1658570;85;21118;-70
2022/10/24 06:39:22;;;;;;;16.80;11.18;;;;;;;13.45;100.00;100919.28;1675303;84;20997;-70
2022/10/24 06:41:49;;;;;;;19.73;11.05;;;;;;;13.40;100.00;100933.27;1679932;85;21563;-70
2022/10/24 06:44:17;;;;;;;18.20;10.48;;;;;;;13.49;100.00;100935.03;1712064;82;21104;-70
2022/10/24 06:46:44;;;;;;;20.20;11.78;;;;;;;13.57;100.00;100940.66;1706581;82;21530;-70
2022/10/24 06:49:13;;;;;;;15.53;11.20;;;;;;;13.62;100.00;100941.25;1691832;82;21043;-69
2022/10/24 06:51:41;;;;;;;14.70;10.80;;;;;;;13.47;100.00;100953.66;1700207;83;21062;-70
2022/10/24 06:54:08;;;;;;;16.30;11.22;;;;;;;13.48;100.00;100949.68;1686350;83;21074;-70
2022/10/24 06:56:36;;;;;;;22.65;11.80;;;;;;;13.46;100.00;100952.80;1713725;83;21066;-69
2022/10/24 06:59:14;;;;;;;18.62;11.93;;;;;;;13.55;100.00;100951.53;1683039;84;21065;-70
2022/10/24 07:01:44;;;;;;;15.48;10.63;;;;;;;13.38;100.00;100959.66;1707440;84;21053;-70
2022/10/24 07:04:12;;;;;;;17.85;10.30;;;;;;;13.30;100.00;100957.91;1687238;83;21077;-68
2022/10/24 07:06:40;;;;;;;16.60;11.33;;;;;;;13.32;100.00;100952.64;1692741;83;21111;-68
2022/10/24 07:09:07;;;;;;;14.70;10.75;;;;;;;13.25;100.00;100949.95;1684300;83;21026;-68
2022/10/24 07:11:34;;;;;;;15.18;9.40;;;;;;;13.35;100.00;100948.16;1657759;84;21527;-68
2022/10/24 07:14:02;;;;;;;12.73;8.60;;;;;;;13.21;100.00;100952.67;1707051;84;21520;-68
2022/10/24 07:16:29;;;;;;;12.75;9.13;;;;;;;13.17;100.00;100948.55;1693926;83;21053;-68
2022/10/24 07:18:57;;;;;;;13.00;8.85;;;;;;;13.26;100.00;100951.61;1688345;83;21097;-67
2022/10/24 07:21:28;;;;;;;11.28;8.60;;;;;;;13.30;100.00;100957.91;1689267;83;21522;-68
2022/10/24 07:23:57;;;;;;;11.35;8.78;;;;;;;13.43;100.00;100962.02;1708154;83;21045;-68
2022/10/24 07:26:26;;;;;;;11.30;8.53;;;;;;;13.47;100.00;100971.77;1690083;83;21068;-68
2022/10/24 07:28:59;;;;;;;11.43;8.58;;;;;;;13.45;100.00;100971.83;1699839;83;21066;-68
2022/10/24 07:31:31;;;;;;;12.80;8.73;;;;;;;13.39;100.00;100980.72;1692837;83;21085;-68
2022/10/24 07:34:01;;;;;;;12.03;8.40;;;;;;;13.23;100.00;100984.92;1700447;83;21042;-71
2022/10/24 07:36:29;;;;;;;12.40;8.60;;;;;;;13.38;100.00;100976.47;1697282;83;21104;-71
2022/10/24 07:38:57;;;;;;;11.55;9.28;;;;;;;13.44;100.00;100981.78;1698271;83;21072;-70
2022/10/24 07:41:30;;;;;;;13.13;8.95;;;;;;;13.40;100.00;100986.72;1696958;84;21098;-71
